sensor_id;sensor_type;location;lat;lon;timestamp;pressure;altitude;pressure_sealevel;temperature;humidity
38227;BME280;24026;49.446;8.576;2023-06-14T00:00:23;100020.56;;;25.25;27.02
38227;BME280;24026;49.446;8.576;2023-06-14T00:02:43;100015.47;;;25.23;26.75
38227;BME280;24026;49.446;8.576;2023-06-14T00:05:05;100019.78;;;25.24;26.87
38227;BME280;24026;49.446;8.576;2023-06-14T00:07:36;100018.53;;;25.22;26.93
38227;BME280;24026;49.446;8.576;2023-06-14T00:09:57;100013.88;;;25.22;27.01
38227;BME280;24026;49.446;8.576;2023-06-14T00:12:17;100011.16;;;25.22;26.93
38227;BME280;24026;49.446;8.576;2023-06-14T00:14:38;100011.16;;;25.22;27.19
38227;BME280;24026;49.446;8.576;2023-06-14T00:16:58;100011.16;;;25.22;26.96
38227;BME280;24026;49.446;8.576;2023-06-14T00:19:19;100003.38;;;25.21;26.90
38227;BME280;24026;49.446;8.576;2023-06-14T00:21:40;100008.81;;;25.21;27.09
38227;BME280;24026;49.446;8.576;2023-06-14T00:24:00;100004.19;;;25.21;26.74
38227;BME280;24026;49.446;8.576;2023-06-14T00:26:21;100001.44;;;25.21;26.81
38227;BME280;24026;49.446;8.576;2023-06-14T00:28:41;100007.25;;;25.20;27.18
38227;BME280;24026;49.446;8.576;2023-06-14T00:31:02;100003.38;;;25.21;27.25
38227;BME280;24026;49.446;8.576;2023-06-14T00:33:23;100003.38;;;25.21;27.10
38227;BME280;24026;49.446;8.576;2023-06-14T00:35:44;99998.28;;;25.19;27.02
38227;BME280;24026;49.446;8.576;2023-06-14T00:38:05;100002.16;;;25.18;27.30
38227;BME280;24026;49.446;8.576;2023-06-14T00:40:25;100005.66;;;25.19;27.02
38227;BME280;24026;49.446;8.576;2023-06-14T00:42:46;100002.50;;;25.17;27.26
38227;BME280;24026;49.446;8.576;2023-06-14T00:45:07;99995.03;;;25.13;27.40
38227;BME280;24026;49.446;8.576;2023-06-14T00:47:27;100000.81;;;25.12;27.49
38227;BME280;24026;49.446;8.576;2023-06-14T00:49:49;99998.78;;;25.09;27.69
38227;BME280;24026;49.446;8.576;2023-06-14T00:52:11;100000.63;;;25.05;27.68
38227;BME280;24026;49.446;8.576;2023-06-14T00:54:32;100010.28;;;25.02;27.89
38227;BME280;24026;49.446;8.576;2023-06-14T00:56:53;100009.06;;;25.00;27.92
38227;BME280;24026;49.446;8.576;2023-06-14T00:59:14;100010.53;;;24.97;27.84
38227;BME280;24026;49.446;8.576;2023-06-14T01:01:35;100007.38;;;24.95;27.87
38227;BME280;24026;49.446;8.576;2023-06-14T01:03:57;100012.72;;;24.91;27.98
38227;BME280;24026;49.446;8.576;2023-06-14T01:06:28;100018.84;;;24.88;28.23
38227;BME280;24026;49.446;8.576;2023-06-14T01:11:41;100019.09;;;24.83;28.03
38227;BME280;24026;49.446;8.576;2023-06-14T01:14:06;100014.34;;;24.80;28.44
38227;BME280;24026;49.446;8.576;2023-06-14T01:16:28;100012.75;;;24.79;28.16
38227;BME280;24026;49.446;8.576;2023-06-14T01:18:51;100013.91;;;24.78;28.15
38227;BME280;24026;49.446;8.576;2023-06-14T01:21:25;100013.81;;;24.74;28.03
38227;BME280;24026;49.446;8.576;2023-06-14T01:23:46;100011.88;;;24.75;28.02
38227;BME280;24026;49.446;8.576;2023-06-14T01:26:12;100016.53;;;24.74;28.17
38227;BME280;24026;49.446;8.576;2023-06-14T01:28:36;100015.72;;;24.74;28.35
38227;BME280;24026;49.446;8.576;2023-06-14T01:30:56;100018.44;;;24.74;28.11
38227;BME280;24026;49.446;8.576;2023-06-14T01:33:21;100028.53;;;24.73;28.16
38227;BME280;24026;49.446;8.576;2023-06-14T01:35:44;100029.31;;;24.74;28.13
38227;BME280;24026;49.446;8.576;2023-06-14T01:38:06;100027.41;;;24.74;27.92
38227;BME280;24026;49.446;8.576;2023-06-14T01:40:27;100027.75;;;24.73;27.95
38227;BME280;24026;49.446;8.576;2023-06-14T01:42:50;100020.38;;;24.73;27.96
38227;BME280;24026;49.446;8.576;2023-06-14T01:45:11;100022.31;;;24.73;28.01
38227;BME280;24026;49.446;8.576;2023-06-14T01:47:31;100025.81;;;24.73;28.08
38227;BME280;24026;49.446;8.576;2023-06-14T01:49:53;100016.06;;;24.72;27.91
38227;BME280;24026;49.446;8.576;2023-06-14T01:52:13;100027.75;;;24.73;28.00
38227;BME280;24026;49.446;8.576;2023-06-14T01:54:34;100025.03;;;24.73;27.91
38227;BME280;24026;49.446;8.576;2023-06-14T01:56:54;100029.66;;;24.72;27.90
38227;BME280;24026;49.446;8.576;2023-06-14T01:59:15;100030.03;;;24.71;28.00
38227;BME280;24026;49.446;8.576;2023-06-14T02:01:36;100035.34;;;24.67;27.86
38227;BME280;24026;49.446;8.576;2023-06-14T02:03:56;100036.38;;;24.63;28.09
38227;BME280;24026;49.446;8.576;2023-06-14T02:06:17;100031.53;;;24.56;28.03
38227;BME280;24026;49.446;8.576;2023-06-14T02:08:37;100038.31;;;24.50;28.19
38227;BME280;24026;49.446;8.576;2023-06-14T02:10:57;100037.78;;;24.44;28.47
38227;BME280;24026;49.446;8.576;2023-06-14T02:13:18;100037.53;;;24.37;28.62
38227;BME280;24026;49.446;8.576;2023-06-14T02:15:38;100036.66;;;24.33;28.48
38227;BME280;24026;49.446;8.576;2023-06-14T02:18:00;100045.16;;;24.31;28.58
38227;BME280;24026;49.446;8.576;2023-06-14T02:20:22;100041.06;;;24.25;28.68
38227;BME280;24026;49.446;8.576;2023-06-14T02:22:42;100046.41;;;24.21;28.87
38227;BME280;24026;49.446;8.576;2023-06-14T02:25:03;100040.88;;;24.18;28.92
38227;BME280;24026;49.446;8.576;2023-06-14T02:27:23;100041.53;;;24.15;28.59
38227;BME280;24026;49.446;8.576;2023-06-14T02:29:45;100045.38;;;24.14;28.86
38227;BME280;24026;49.446;8.576;2023-06-14T02:32:06;100051.16;;;24.12;29.00
38227;BME280;24026;49.446;8.576;2023-06-14T02:34:30;100046.44;;;24.09;28.97
38227;BME280;24026;49.446;8.576;2023-06-14T02:36:50;100048.31;;;24.09;29.04
38227;BME280;24026;49.446;8.576;2023-06-14T02:39:12;100042.47;;;24.07;28.89
38227;BME280;24026;49.446;8.576;2023-06-14T02:41:33;100048.66;;;24.07;29.01
38227;BME280;24026;49.446;8.576;2023-06-14T02:43:53;100048.22;;;24.05;29.03
38227;BME280;24026;49.446;8.576;2023-06-14T02:46:13;100048.13;;;24.01;28.90
38227;BME280;24026;49.446;8.576;2023-06-14T02:48:35;100045.75;;;24.00;28.89
38227;BME280;24026;49.446;8.576;2023-06-14T02:50:55;100053.09;;;23.99;29.17
38227;BME280;24026;49.446;8.576;2023-06-14T02:53:16;100055.00;;;23.99;29.09
38227;BME280;24026;49.446;8.576;2023-06-14T02:55:37;100044.97;;;23.99;29.16
38227;BME280;24026;49.446;8.576;2023-06-14T02:57:59;100050.03;;;24.01;29.22
38227;BME280;24026;49.446;8.576;2023-06-14T03:00:20;100050.38;;;23.99;28.94
38227;BME280;24026;49.446;8.576;2023-06-14T03:02:40;100047.56;;;23.96;29.23
38227;BME280;24026;49.446;8.576;2023-06-14T03:05:03;100049.81;;;23.94;29.06
38227;BME280;24026;49.446;8.576;2023-06-14T03:07:24;100049.81;;;23.94;29.22
38227;BME280;24026;49.446;8.576;2023-06-14T03:09:45;100047.09;;;23.94;29.26
38227;BME280;24026;49.446;8.576;2023-06-14T03:12:06;100048.69;;;23.95;29.32
38227;BME280;24026;49.446;8.576;2023-06-14T03:14:27;100049.94;;;23.97;29.37
38227;BME280;24026;49.446;8.576;2023-06-14T03:16:49;100055.38;;;23.97;29.14
38227;BME280;24026;49.446;8.576;2023-06-14T03:19:10;100052.66;;;23.97;29.43
38227;BME280;24026;49.446;8.576;2023-06-14T03:21:31;100054.56;;;23.97;29.26
38227;BME280;24026;49.446;8.576;2023-06-14T03:23:52;100058.41;;;23.96;29.50
38227;BME280;24026;49.446;8.576;2023-06-14T03:26:13;100059.53;;;23.95;29.37
38227;BME280;24026;49.446;8.576;2023-06-14T03:28:34;100064.84;;;23.91;29.33
38227;BME280;24026;49.446;8.576;2023-06-14T03:30:55;100073.66;;;23.88;29.68
38227;BME280;24026;49.446;8.576;2023-06-14T03:33:16;100062.72;;;23.84;29.52
38227;BME280;24026;49.446;8.576;2023-06-14T03:35:37;100070.06;;;23.84;29.38
38227;BME280;24026;49.446;8.576;2023-06-14T03:37:57;100074.69;;;23.83;29.91
38227;BME280;24026;49.446;8.576;2023-06-14T03:40:19;100077.72;;;23.82;29.58
38227;BME280;24026;49.446;8.576;2023-06-14T03:42:40;100077.25;;;23.80;29.70
38227;BME280;24026;49.446;8.576;2023-06-14T03:45:00;100073.31;;;23.77;29.84
38227;BME280;24026;49.446;8.576;2023-06-14T03:47:21;100075.88;;;23.74;30.37
38227;BME280;24026;49.446;8.576;2023-06-14T03:49:41;100079.75;;;23.73;29.69
38227;BME280;24026;49.446;8.576;2023-06-14T03:52:02;100083.91;;;23.70;29.97
38227;BME280;24026;49.446;8.576;2023-06-14T03:54:22;100092.38;;;23.68;29.97
38227;BME280;24026;49.446;8.576;2023-06-14T03:56:43;100089.56;;;23.65;29.91
38227;BME280;24026;49.446;8.576;2023-06-14T03:59:04;100091.81;;;23.63;30.32
38227;BME280;24026;49.446;8.576;2023-06-14T04:01:25;100094.06;;;23.61;30.26
38227;BME280;24026;49.446;8.576;2023-06-14T04:03:49;100099.03;;;23.59;30.21
38227;BME280;24026;49.446;8.576;2023-06-14T04:06:09;100091.25;;;23.57;30.56
38227;BME280;24026;49.446;8.576;2023-06-14T04:08:30;100100.16;;;23.58;30.72
38227;BME280;24026;49.446;8.576;2023-06-14T04:10:50;100106.38;;;23.58;30.71
38227;BME280;24026;49.446;8.576;2023-06-14T04:13:11;100111.81;;;23.58;30.67
38227;BME280;24026;49.446;8.576;2023-06-14T04:15:33;100113.41;;;23.59;31.13
38227;BME280;24026;49.446;8.576;2023-06-14T04:17:54;100118.38;;;23.57;31.04
38227;BME280;24026;49.446;8.576;2023-06-14T04:20:18;100120.28;;;23.57;31.04
38227;BME280;24026;49.446;8.576;2023-06-14T04:22:40;100125.69;;;23.57;31.08
38227;BME280;24026;49.446;8.576;2023-06-14T04:25:01;100121.41;;;23.56;31.13
38227;BME280;24026;49.446;8.576;2023-06-14T04:27:23;100120.59;;;23.55;31.11
38227;BME280;24026;49.446;8.576;2023-06-14T04:29:45;100127.19;;;23.54;31.20
38227;BME280;24026;49.446;8.576;2023-06-14T04:32:13;100128.28;;;23.53;31.40
38227;BME280;24026;49.446;8.576;2023-06-14T04:34:33;100132.47;;;23.51;31.55
38227;BME280;24026;49.446;8.576;2023-06-14T04:36:56;100129.28;;;23.48;31.48
38227;BME280;24026;49.446;8.576;2023-06-14T04:39:18;100132.66;;;23.45;31.54
38227;BME280;24026;49.446;8.576;2023-06-14T04:41:38;100126.78;;;23.43;31.76
38227;BME280;24026;49.446;8.576;2023-06-14T04:44:00;100130.66;;;23.42;31.63
38227;BME280;24026;49.446;8.576;2023-06-14T04:46:22;100137.63;;;23.43;31.95
38227;BME280;24026;49.446;8.576;2023-06-14T04:48:43;100127.59;;;23.44;31.82
38227;BME280;24026;49.446;8.576;2023-06-14T04:51:04;100145.44;;;23.45;31.88
38227;BME280;24026;49.446;8.576;2023-06-14T04:53:24;100145.09;;;23.46;31.95
38227;BME280;24026;49.446;8.576;2023-06-14T04:55:49;100143.50;;;23.45;32.24
38227;BME280;24026;49.446;8.576;2023-06-14T04:58:10;100148.59;;;23.47;31.84
38227;BME280;24026;49.446;8.576;2023-06-14T05:00:33;100145.88;;;23.47;32.08
38227;BME280;24026;49.446;8.576;2023-06-14T05:02:53;100145.88;;;23.47;31.56
38227;BME280;24026;49.446;8.576;2023-06-14T05:05:15;100156.06;;;23.50;31.52
38227;BME280;24026;49.446;8.576;2023-06-14T05:07:35;100154.63;;;23.53;31.46
38227;BME280;24026;49.446;8.576;2023-06-14T05:09:56;100162.09;;;23.56;31.55
38227;BME280;24026;49.446;8.576;2023-06-14T05:12:17;100157.47;;;23.56;31.56
38227;BME280;24026;49.446;8.576;2023-06-14T05:14:38;100158.91;;;23.54;31.84
38227;BME280;24026;49.446;8.576;2023-06-14T05:17:00;100158.00;;;23.49;31.84
38227;BME280;24026;49.446;8.576;2023-06-14T05:19:21;100163.19;;;23.42;31.86
38227;BME280;24026;49.446;8.576;2023-06-14T05:21:43;100160.81;;;23.41;32.21
38227;BME280;24026;49.446;8.576;2023-06-14T05:24:03;100163.03;;;23.39;32.29
38227;BME280;24026;49.446;8.576;2023-06-14T05:26:24;100155.25;;;23.37;32.32
38227;BME280;24026;49.446;8.576;2023-06-14T05:28:48;100169.94;;;23.36;32.36
38227;BME280;24026;49.446;8.576;2023-06-14T05:31:10;100166.88;;;23.38;32.54
38227;BME280;24026;49.446;8.576;2023-06-14T05:33:30;100170.38;;;23.38;32.41
38227;BME280;24026;49.446;8.576;2023-06-14T05:35:50;100175.47;;;23.40;32.68
38227;BME280;24026;49.446;8.576;2023-06-14T05:38:11;100173.53;;;23.40;32.67
38227;BME280;24026;49.446;8.576;2023-06-14T05:40:31;100177.06;;;23.41;32.88
38227;BME280;24026;49.446;8.576;2023-06-14T05:42:53;100182.50;;;23.41;32.81
38227;BME280;24026;49.446;8.576;2023-06-14T05:45:13;100175.13;;;23.41;33.00
38227;BME280;24026;49.446;8.576;2023-06-14T05:47:35;100182.50;;;23.41;33.08
38227;BME280;24026;49.446;8.576;2023-06-14T05:49:56;100181.03;;;23.43;33.12
38227;BME280;24026;49.446;8.576;2023-06-14T05:52:16;100187.25;;;23.44;33.22
38227;BME280;24026;49.446;8.576;2023-06-14T05:54:37;100183.41;;;23.45;33.10
38227;BME280;24026;49.446;8.576;2023-06-14T05:56:57;100195.03;;;23.45;33.21
38227;BME280;24026;49.446;8.576;2023-06-14T05:59:21;100195.50;;;23.47;33.27
38227;BME280;24026;49.446;8.576;2023-06-14T06:01:42;100196.28;;;23.48;33.10
38227;BME280;24026;49.446;8.576;2023-06-14T06:04:02;100188.16;;;23.48;33.30
38227;BME280;24026;49.446;8.576;2023-06-14T06:06:24;100194.38;;;23.48;33.32
38227;BME280;24026;49.446;8.576;2023-06-14T06:08:45;100192.13;;;23.51;33.65
38227;BME280;24026;49.446;8.576;2023-06-14T06:11:05;100199.13;;;23.52;33.20
38227;BME280;24026;49.446;8.576;2023-06-14T06:13:26;100205.81;;;23.54;33.27
38227;BME280;24026;49.446;8.576;2023-06-14T06:15:47;100200.06;;;23.56;33.32
38227;BME280;24026;49.446;8.576;2023-06-14T06:18:08;100204.00;;;23.58;33.13
38227;BME280;24026;49.446;8.576;2023-06-14T06:20:29;100198.72;;;23.62;32.97
38227;BME280;24026;49.446;8.576;2023-06-14T06:22:51;100210.38;;;23.62;32.80
38227;BME280;24026;49.446;8.576;2023-06-14T06:25:12;100207.31;;;23.64;32.54
38227;BME280;24026;49.446;8.576;2023-06-14T06:27:32;100204.25;;;23.65;33.02
38227;BME280;24026;49.446;8.576;2023-06-14T06:29:53;100210.50;;;23.66;32.67
38227;BME280;24026;49.446;8.576;2023-06-14T06:32:14;100214.78;;;23.67;32.19
38227;BME280;24026;49.446;8.576;2023-06-14T06:34:35;100209.00;;;23.68;32.18
38227;BME280;24026;49.446;8.576;2023-06-14T06:36:57;100210.63;;;23.70;32.17
38227;BME280;24026;49.446;8.576;2023-06-14T06:39:17;100216.81;;;23.70;31.93
38227;BME280;24026;49.446;8.576;2023-06-14T06:41:38;100217.97;;;23.69;31.76
38227;BME280;24026;49.446;8.576;2023-06-14T06:44:00;100218.41;;;23.71;31.67
38227;BME280;24026;49.446;8.576;2023-06-14T06:46:20;100222.25;;;23.70;31.75
38227;BME280;24026;49.446;8.576;2023-06-14T06:48:41;100228.50;;;23.71;31.54
38227;BME280;24026;49.446;8.576;2023-06-14T06:51:01;100230.84;;;23.72;31.46
38227;BME280;24026;49.446;8.576;2023-06-14T06:53:21;100231.66;;;23.73;31.83
38227;BME280;24026;49.446;8.576;2023-06-14T06:55:42;100234.81;;;23.75;31.72
38227;BME280;24026;49.446;8.576;2023-06-14T06:58:02;100231.78;;;23.76;31.75
38227;BME280;24026;49.446;8.576;2023-06-14T07:00:24;100224.88;;;23.79;31.37
38227;BME280;24026;49.446;8.576;2023-06-14T07:02:45;100230.28;;;23.79;31.50
38227;BME280;24026;49.446;8.576;2023-06-14T07:05:06;100233.50;;;23.81;31.59
38227;BME280;24026;49.446;8.576;2023-06-14T07:07:27;100239.41;;;23.83;31.42
38227;BME280;24026;49.446;8.576;2023-06-14T07:09:47;100241.63;;;23.81;31.49
38227;BME280;24026;49.446;8.576;2023-06-14T07:12:08;100245.47;;;23.80;31.54
38227;BME280;24026;49.446;8.576;2023-06-14T07:14:29;100236.19;;;23.81;31.44
38227;BME280;24026;49.446;8.576;2023-06-14T07:16:51;100242.13;;;23.83;31.36
38227;BME280;24026;49.446;8.576;2023-06-14T07:19:15;100242.22;;;23.86;31.34
38227;BME280;24026;49.446;8.576;2023-06-14T07:21:37;100236.81;;;23.86;31.27
38227;BME280;24026;49.446;8.576;2023-06-14T07:23:58;100248.44;;;23.87;31.32
38227;BME280;24026;49.446;8.576;2023-06-14T07:26:18;100251.16;;;23.87;31.28
38227;BME280;24026;49.446;8.576;2023-06-14T07:28:39;100256.59;;;23.87;31.31
38227;BME280;24026;49.446;8.576;2023-06-14T07:30:59;100249.72;;;23.90;31.25
38227;BME280;24026;49.446;8.576;2023-06-14T07:33:20;100257.97;;;23.93;31.36
38227;BME280;24026;49.446;8.576;2023-06-14T07:35:40;100264.19;;;23.94;31.11
38227;BME280;24026;49.446;8.576;2023-06-14T07:38:01;100258.41;;;23.95;31.06
38227;BME280;24026;49.446;8.576;2023-06-14T07:40:21;100258.09;;;23.97;31.10
38227;BME280;24026;49.446;8.576;2023-06-14T07:42:42;100253.91;;;23.99;31.36
38227;BME280;24026;49.446;8.576;2023-06-14T07:45:03;100259.47;;;24.03;31.04
38227;BME280;24026;49.446;8.576;2023-06-14T07:47:24;100257.22;;;24.05;30.95
38227;BME280;24026;49.446;8.576;2023-06-14T07:49:45;100256.88;;;24.07;30.76
38227;BME280;24026;49.446;8.576;2023-06-14T07:52:06;100256.22;;;24.10;30.89
38227;BME280;24026;49.446;8.576;2023-06-14T07:54:27;100259.38;;;24.12;30.73
38227;BME280;24026;49.446;8.576;2023-06-14T07:56:50;100263.34;;;24.14;30.58
38227;BME280;24026;49.446;8.576;2023-06-14T07:59:11;100261.88;;;24.17;30.81
38227;BME280;24026;49.446;8.576;2023-06-14T08:01:32;100257.38;;;24.21;30.75
38227;BME280;24026;49.446;8.576;2023-06-14T08:03:53;100264.84;;;24.24;30.90
38227;BME280;24026;49.446;8.576;2023-06-14T08:06:14;100262.25;;;24.28;30.87
38227;BME280;24026;49.446;8.576;2023-06-14T08:08:35;100251.84;;;24.30;30.72
38227;BME280;24026;49.446;8.576;2023-06-14T08:10:55;100258.50;;;24.32;30.73
38227;BME280;24026;49.446;8.576;2023-06-14T08:13:16;100255.91;;;24.36;30.64
38227;BME280;24026;49.446;8.576;2023-06-14T08:15:36;100263.38;;;24.39;30.89
38227;BME280;24026;49.446;8.576;2023-06-14T08:17:57;100256.16;;;24.43;30.59
38227;BME280;24026;49.446;8.576;2023-06-14T08:20:20;100263.63;;;24.46;30.53
38227;BME280;24026;49.446;8.576;2023-06-14T08:22:40;100260.56;;;24.48;30.59
38227;BME280;24026;49.446;8.576;2023-06-14T08:25:02;100263.41;;;24.51;30.64
38227;BME280;24026;49.446;8.576;2023-06-14T08:27:24;100262.72;;;24.54;30.63
38227;BME280;24026;49.446;8.576;2023-06-14T08:29:44;100257.00;;;24.56;30.50
38227;BME280;24026;49.446;8.576;2023-06-14T08:32:05;100260.94;;;24.58;30.42
38227;BME280;24026;49.446;8.576;2023-06-14T08:34:26;100259.81;;;24.59;30.47
38227;BME280;24026;49.446;8.576;2023-06-14T08:36:46;100258.31;;;24.62;30.29
38227;BME280;24026;49.446;8.576;2023-06-14T08:39:06;100260.69;;;24.64;30.15
38227;BME280;24026;49.446;8.576;2023-06-14T08:41:29;100261.16;;;24.66;30.17
38227;BME280;24026;49.446;8.576;2023-06-14T08:43:50;100263.53;;;24.67;29.99
38227;BME280;24026;49.446;8.576;2023-06-14T08:46:11;100263.19;;;24.69;29.92
38227;BME280;24026;49.446;8.576;2023-06-14T08:48:32;100262.84;;;24.70;29.92
38227;BME280;24026;49.446;8.576;2023-06-14T08:50:59;100264.13;;;24.73;29.96
38227;BME280;24026;49.446;8.576;2023-06-14T08:53:22;100274.66;;;24.74;29.83
38227;BME280;24026;49.446;8.576;2023-06-14T08:55:43;100270.44;;;24.77;29.61
38227;BME280;24026;49.446;8.576;2023-06-14T08:58:04;100273.97;;;24.77;29.75
38227;BME280;24026;49.446;8.576;2023-06-14T09:00:26;100272.47;;;24.80;29.98
38227;BME280;24026;49.446;8.576;2023-06-14T09:02:48;100271.03;;;24.83;29.72
38227;BME280;24026;49.446;8.576;2023-06-14T09:05:13;100278.84;;;24.84;29.72
38227;BME280;24026;49.446;8.576;2023-06-14T09:07:34;100279.28;;;24.86;29.61
38227;BME280;24026;49.446;8.576;2023-06-14T09:10:11;100270.31;;;24.86;29.38
38227;BME280;24026;49.446;8.576;2023-06-14T09:12:32;100277.00;;;24.88;29.24
38227;BME280;24026;49.446;8.576;2023-06-14T09:14:52;100276.66;;;24.90;29.31
38227;BME280;24026;49.446;8.576;2023-06-14T09:17:13;100276.78;;;24.93;29.29
38227;BME280;24026;49.446;8.576;2023-06-14T09:19:34;100270.22;;;24.94;29.12
38227;BME280;24026;49.446;8.576;2023-06-14T09:21:56;100283.47;;;24.96;29.00
38227;BME280;24026;49.446;8.576;2023-06-14T09:24:17;100290.91;;;24.99;28.92
38227;BME280;24026;49.446;8.576;2023-06-14T09:26:39;100285.13;;;25.01;28.28
38227;BME280;24026;49.446;8.576;2023-06-14T09:29:00;100289.00;;;25.00;28.21
38227;BME280;24026;49.446;8.576;2023-06-14T09:31:21;100282.75;;;24.99;28.22
38227;BME280;24026;49.446;8.576;2023-06-14T09:33:43;100282.75;;;24.99;28.08
38227;BME280;24026;49.446;8.576;2023-06-14T09:36:11;100287.84;;;25.01;28.29
38227;BME280;24026;49.446;8.576;2023-06-14T09:38:34;100286.41;;;25.03;28.18
38227;BME280;24026;49.446;8.576;2023-06-14T09:40:58;100291.59;;;25.08;28.22
38227;BME280;24026;49.446;8.576;2023-06-14T09:43:19;100296.69;;;25.10;27.96
38227;BME280;24026;49.446;8.576;2023-06-14T09:45:41;100285.16;;;25.13;27.73
38227;BME280;24026;49.446;8.576;2023-06-14T09:48:06;100291.47;;;25.17;27.38
38227;BME280;24026;49.446;8.576;2023-06-14T09:50:28;100287.97;;;25.17;27.31
38227;BME280;24026;49.446;8.576;2023-06-14T09:52:52;100286.13;;;25.21;27.34
38227;BME280;24026;49.446;8.576;2023-06-14T09:55:13;100288.84;;;25.21;27.08
38227;BME280;24026;49.446;8.576;2023-06-14T09:57:34;100283.88;;;25.23;26.98
38227;BME280;24026;49.446;8.576;2023-06-14T09:59:57;100290.88;;;25.24;26.85
38227;BME280;24026;49.446;8.576;2023-06-14T10:02:27;100288.97;;;25.24;26.81
38227;BME280;24026;49.446;8.576;2023-06-14T10:04:56;100294.88;;;25.26;27.02
38227;BME280;24026;49.446;8.576;2023-06-14T10:07:19;100285.25;;;25.29;27.11
38227;BME280;24026;49.446;8.576;2023-06-14T10:09:40;100285.72;;;25.31;27.07
38227;BME280;24026;49.446;8.576;2023-06-14T10:12:04;100292.38;;;25.33;26.77
38227;BME280;24026;49.446;8.576;2023-06-14T10:14:26;100290.09;;;25.36;26.86
38227;BME280;24026;49.446;8.576;2023-06-14T10:17:03;100291.69;;;25.37;26.41
38227;BME280;24026;49.446;8.576;2023-06-14T10:19:40;100283.53;;;25.37;26.25
38227;BME280;24026;49.446;8.576;2023-06-14T10:22:19;100289.75;;;25.37;26.19
38227;BME280;24026;49.446;8.576;2023-06-14T10:24:44;100291.78;;;25.40;26.00
38227;BME280;24026;49.446;8.576;2023-06-14T10:27:07;100289.16;;;25.44;26.18
38227;BME280;24026;49.446;8.576;2023-06-14T10:32:14;100291.00;;;25.40;26.21
38227;BME280;24026;49.446;8.576;2023-06-14T10:34:38;100298.59;;;25.46;26.19
38227;BME280;24026;49.446;8.576;2023-06-14T10:37:13;100291.22;;;25.47;26.39
38227;BME280;24026;49.446;8.576;2023-06-14T10:39:42;100285.44;;;25.48;26.51
38227;BME280;24026;49.446;8.576;2023-06-14T10:42:05;100281.56;;;25.49;26.65
38227;BME280;24026;49.446;8.576;2023-06-14T10:46:54;100283.59;;;25.52;26.75
38227;BME280;24026;49.446;8.576;2023-06-14T10:49:19;100281.34;;;25.55;26.70
38227;BME280;24026;49.446;8.576;2023-06-14T10:51:42;100281.44;;;25.58;26.20
38227;BME280;24026;49.446;8.576;2023-06-14T10:54:11;100278.03;;;25.61;26.30
38227;BME280;24026;49.446;8.576;2023-06-14T10:56:33;100274.16;;;25.62;26.42
38227;BME280;24026;49.446;8.576;2023-06-14T10:58:56;100274.25;;;25.66;26.31
38227;BME280;24026;49.446;8.576;2023-06-14T11:01:28;100275.84;;;25.67;26.36
38227;BME280;24026;49.446;8.576;2023-06-14T11:03:52;100274.38;;;25.69;26.49
38227;BME280;24026;49.446;8.576;2023-06-14T11:06:21;100276.38;;;25.73;26.22
38227;BME280;24026;49.446;8.576;2023-06-14T11:11:25;100270.25;;;25.76;26.56
38227;BME280;24026;49.446;8.576;2023-06-14T11:13:50;100276.16;;;25.78;26.49
38227;BME280;24026;49.446;8.576;2023-06-14T11:16:14;100271.50;;;25.78;26.56
38227;BME280;24026;49.446;8.576;2023-06-14T11:18:36;100272.72;;;25.81;26.75
38227;BME280;24026;49.446;8.576;2023-06-14T11:20:56;100279.75;;;25.82;26.75
38227;BME280;24026;49.446;8.576;2023-06-14T11:23:17;100279.75;;;25.82;26.80
38227;BME280;24026;49.446;8.576;2023-06-14T11:25:37;100274.75;;;25.84;26.85
38227;BME280;24026;49.446;8.576;2023-06-14T11:27:58;100271.66;;;25.85;26.59
38227;BME280;24026;49.446;8.576;2023-06-14T11:30:19;100274.84;;;25.87;26.89
38227;BME280;24026;49.446;8.576;2023-06-14T11:32:40;100274.84;;;25.87;26.77
38227;BME280;24026;49.446;8.576;2023-06-14T11:35:01;100275.72;;;25.92;26.95
38227;BME280;24026;49.446;8.576;2023-06-14T11:37:22;100273.44;;;25.94;26.66
38227;BME280;24026;49.446;8.576;2023-06-14T11:39:44;100273.13;;;25.95;26.56
38227;BME280;24026;49.446;8.576;2023-06-14T11:42:05;100276.28;;;25.97;26.59
38227;BME280;24026;49.446;8.576;2023-06-14T11:44:26;100274.38;;;25.98;26.65
38227;BME280;24026;49.446;8.576;2023-06-14T11:46:46;100276.72;;;25.99;26.67
38227;BME280;24026;49.446;8.576;2023-06-14T11:49:07;100276.03;;;26.02;26.50
38227;BME280;24026;49.446;8.576;2023-06-14T11:51:27;100260.50;;;26.03;26.19
38227;BME280;24026;49.446;8.576;2023-06-14T11:53:48;100268.75;;;26.06;26.51
38227;BME280;24026;49.446;8.576;2023-06-14T11:56:10;100268.84;;;26.10;26.36
38227;BME280;24026;49.446;8.576;2023-06-14T11:58:30;100265.44;;;26.13;26.25
38227;BME280;24026;49.446;8.576;2023-06-14T12:00:52;100272.56;;;26.18;26.53
38227;BME280;24026;49.446;8.576;2023-06-14T12:03:12;100273.44;;;26.22;26.56
38227;BME280;24026;49.446;8.576;2023-06-14T12:05:33;100276.25;;;26.25;26.56
38227;BME280;24026;49.446;8.576;2023-06-14T12:08:02;100272.03;;;26.28;26.31
38227;BME280;24026;49.446;8.576;2023-06-14T12:10:23;100272.47;;;26.30;26.56
38227;BME280;24026;49.446;8.576;2023-06-14T12:12:44;100272.47;;;26.30;26.51
38227;BME280;24026;49.446;8.576;2023-06-14T12:15:06;100273.69;;;26.33;26.44
38227;BME280;24026;49.446;8.576;2023-06-14T12:17:32;100280.72;;;26.34;26.09
38227;BME280;24026;49.446;8.576;2023-06-14T12:19:53;100260.53;;;26.35;26.15
38227;BME280;24026;49.446;8.576;2023-06-14T12:22:13;100267.97;;;26.38;26.03
38227;BME280;24026;49.446;8.576;2023-06-14T12:24:35;100265.72;;;26.40;26.00
38227;BME280;24026;49.446;8.576;2023-06-14T12:26:58;100267.75;;;26.43;26.15
38227;BME280;24026;49.446;8.576;2023-06-14T12:29:19;100256.03;;;26.42;26.10
38227;BME280;24026;49.446;8.576;2023-06-14T12:31:40;100263.50;;;26.46;26.26